Time;durP1;ratioP1;P1;durP2;ratioP2;P2;SDS_P1;SDS_P2;PMS_P1;PMS_P2;Temp;Humidity;BMP_temperature;BMP_pressure;BME280_temperature;BME280_humidity;BME280_pressure;Samples;Min_cycle;Max_cycle;Signal;HPM_P1;HPM_P2
2023/03/09 00:00:57;;;;;;;30.98;17.38;;;;;;;8.58;100.00;99799.72;5072754;28;20489;-75
2023/03/09 00:03:22;;;;;;;24.25;15.38;;;;;;;8.37;100.00;99790.91;5073684;28;20064;-75
2023/03/09 00:05:59;;;;;;;22.83;13.10;;;;;;;8.61;100.00;99775.16;5073841;28;20029;-76
2023/03/09 00:08:27;;;;;;;23.45;13.82;;;;;;;9.01;100.00;99835.03;5072564;28;20028;-75
2023/03/09 00:10:53;;;;;;;19.52;13.05;;;;;;;8.89;100.00;99828.56;5072805;28;20033;-76
2023/03/09 00:13:20;;;;;;;16.17;11.23;;;;;;;8.59;100.00;99763.41;5073649;28;20612;-75
2023/03/09 00:15:50;;;;;;;12.93;7.57;;;;;;;8.41;100.00;99792.53;5074294;28;20024;-75
2023/03/09 00:18:21;;;;;;;12.98;8.32;;;;;;;8.71;100.00;99789.25;5073852;28;20052;-76
2023/03/09 00:20:47;;;;;;;14.00;8.88;;;;;;;8.32;100.00;99728.59;5072002;28;20053;-75
2023/03/09 00:23:14;;;;;;;13.20;9.20;;;;;;;8.42;100.00;99768.84;5072313;28;20071;-75
2023/03/09 00:25:40;;;;;;;11.88;8.40;;;;;;;8.22;100.00;99705.13;5073731;28;20074;-75
2023/03/09 00:28:05;;;;;;;15.52;9.57;;;;;;;8.40;100.00;99752.84;5072312;28;20029;-75
2023/03/09 00:30:32;;;;;;;15.95;9.30;;;;;;;8.36;100.00;99705.66;5073098;28;20085;-75
2023/03/09 00:32:57;;;;;;;18.02;10.07;;;;;;;8.40;100.00;99747.78;5073598;28;20067;-75
2023/03/09 00:35:23;;;;;;;23.27;15.00;;;;;;;8.22;100.00;99684.06;5071469;28;20060;-76
2023/03/09 00:37:48;;;;;;;23.70;15.40;;;;;;;7.99;100.00;99683.72;5072738;28;20509;-76
2023/03/09 00:40:14;;;;;;;22.33;13.60;;;;;;;7.82;100.00;99679.06;5072231;28;20401;-76
2023/03/09 00:42:44;;;;;;;21.02;13.82;;;;;;;7.54;100.00;99680.50;5071876;28;20105;-76
2023/03/09 00:45:11;;;;;;;19.23;12.38;;;;;;;7.89;100.00;99704.19;5073269;28;20042;-75
2023/03/09 00:47:37;;;;;;;20.17;12.00;;;;;;;7.95;100.00;99715.88;5071818;28;20034;-75
2023/03/09 00:50:04;;;;;;;16.15;10.85;;;;;;;7.33;100.00;99664.03;5073185;28;20039;-75
2023/03/09 00:52:30;;;;;;;15.23;10.40;;;;;;;7.21;100.00;99674.41;5072675;28;20545;-77
2023/03/09 00:54:57;;;;;;;19.35;10.10;;;;;;;7.14;100.00;99662.75;5072727;28;20119;-75
2023/03/09 00:57:24;;;;;;;13.40;8.95;;;;;;;7.22;100.00;99710.63;5072286;28;20407;-77
2023/03/09 00:59:51;;;;;;;13.88;9.10;;;;;;;7.21;100.00;99709.78;5071636;28;20039;-75
2023/03/09 01:02:18;;;;;;;12.60;8.38;;;;;;;7.12;100.00;99699.84;5071460;28;20020;-76
2023/03/09 01:04:43;;;;;;;15.48;8.23;;;;;;;7.00;100.00;99690.81;5072366;28;20028;-76
2023/03/09 01:07:09;;;;;;;12.20;7.53;;;;;;;7.15;100.00;99681.28;5070805;28;20028;-76
2023/03/09 01:09:36;;;;;;;11.88;7.72;;;;;;;7.31;100.00;99615.22;5054829;28;20029;-75
2023/03/09 01:12:02;;;;;;;13.90;8.13;;;;;;;6.79;100.00;99622.16;5051360;28;20033;-77
2023/03/09 01:14:27;;;;;;;13.30;9.63;;;;;;;6.86;100.00;99608.53;5051432;28;20574;-76
2023/03/09 01:16:53;;;;;;;21.08;9.02;;;;;;;7.34;100.00;99657.31;5052398;28;20056;-75
2023/03/09 01:19:18;;;;;;;15.65;9.18;;;;;;;7.12;100.00;99639.22;5052615;28;20053;-76
2023/03/09 01:21:43;;;;;;;12.65;9.05;;;;;;;7.18;100.00;99597.81;5052119;28;20075;-76
2023/03/09 01:24:09;;;;;;;14.98;9.90;;;;;;;6.94;100.00;99602.50;5051431;28;20124;-75
2023/03/09 01:26:35;;;;;;;13.35;9.10;;;;;;;7.26;100.00;99594.25;5050898;28;20380;-74
2023/03/09 01:29:01;;;;;;;14.80;9.20;;;;;;;7.19;100.00;99596.97;5052415;28;20036;-75
2023/03/09 01:31:27;;;;;;;16.17;9.52;;;;;;;7.54;100.00;99597.03;5051581;28;20029;-75
2023/03/09 01:33:52;;;;;;;16.63;10.05;;;;;;;7.67;100.00;99657.44;5052233;28;20479;-76
2023/03/09 01:36:19;;;;;;;15.93;10.38;;;;;;;7.60;100.00;99589.31;5050748;28;20031;-73
2023/03/09 01:38:46;;;;;;;18.90;11.85;;;;;;;7.47;100.00;99656.19;5052389;28;20179;-76
2023/03/09 01:41:12;;;;;;;15.95;10.43;;;;;;;7.74;100.00;99617.66;5051485;28;20510;-76
2023/03/09 01:43:42;;;;;;;16.17;11.40;;;;;;;7.56;100.00;99649.25;5050700;28;20048;-76
2023/03/09 01:46:20;;;;;;;16.27;10.98;;;;;;;7.92;100.00;99656.91;5050678;28;20025;-75
2023/03/09 01:49:10;;;;;;;15.40;10.15;;;;;;;7.64;100.00;99656.69;5051844;28;20098;-75
2023/03/09 01:51:35;;;;;;;14.45;10.63;;;;;;;7.64;100.00;99667.63;5049837;28;20045;-75
2023/03/09 01:54:03;;;;;;;16.13;10.23;;;;;;;7.73;100.00;99651.41;5050937;28;20500;-76
2023/03/09 01:56:30;;;;;;;15.10;10.40;;;;;;;7.60;100.00;99657.59;5031851;28;20124;-75
2023/03/09 01:58:56;;;;;;;14.93;10.77;;;;;;;7.18;100.00;99600.34;5031670;28;20061;-76
2023/03/09 02:01:23;;;;;;;15.65;11.35;;;;;;;6.97;100.00;99597.38;5031089;28;20037;-75
2023/03/09 02:03:55;;;;;;;16.17;11.35;;;;;;;7.43;100.00;99652.88;5029588;28;20113;-76
2023/03/09 02:06:21;;;;;;;15.38;10.93;;;;;;;7.58;100.00;99650.06;5030751;28;20029;-75
2023/03/09 02:09:25;;;;;;;18.30;10.82;;;;;;;7.60;100.00;99657.59;5030453;28;20026;-76
2023/03/09 02:11:50;;;;;;;16.95;10.93;;;;;;;7.34;100.00;99599.16;5032109;28;20029;-76
2023/03/09 02:14:17;;;;;;;13.45;10.65;;;;;;;7.32;100.00;99608.47;5044508;28;20037;-75
2023/03/09 02:16:43;;;;;;;16.98;11.70;;;;;;;7.38;100.00;99613.41;5031419;28;20087;-76
2023/03/09 02:19:22;;;;;;;20.63;12.10;;;;;;;7.56;100.00;99595.31;5031580;28;20419;-76
2023/03/09 02:21:52;;;;;;;21.67;12.07;;;;;;;7.62;100.00;99633.09;5030455;28;20424;-76
2023/03/09 02:24:35;;;;;;;16.58;11.52;;;;;;;7.41;100.00;99591.41;5031581;28;20029;-77
2023/03/09 02:27:08;;;;;;;14.77;11.13;;;;;;;7.54;100.00;99627.38;5031721;28;20065;-76
2023/03/09 02:29:33;;;;;;;17.33;10.45;;;;;;;7.46;100.00;99635.13;5032304;28;20055;-77
2023/03/09 02:31:59;;;;;;;16.95;10.95;;;;;;;7.14;100.00;99627.38;5030507;28;20124;-77
2023/03/09 02:34:24;;;;;;;16.48;11.60;;;;;;;7.24;100.00;99585.03;5031169;28;20567;-77
2023/03/09 02:36:49;;;;;;;13.73;10.15;;;;;;;7.22;100.00;99569.91;5031978;28;20030;-75
2023/03/09 02:39:46;;;;;;;14.40;10.85;;;;;;;7.36;100.00;99642.94;5044050;28;20044;-74
2023/03/09 02:42:12;;;;;;;13.45;9.95;;;;;;;7.32;100.00;99637.13;5046843;28;20060;-74
2023/03/09 02:44:38;;;;;;;16.50;10.68;;;;;;;7.26;100.00;99616.19;5051398;28;20499;-75
2023/03/09 02:47:10;;;;;;;13.80;10.82;;;;;;;7.23;100.00;99581.66;5050850;28;20041;-75
2023/03/09 02:49:35;;;;;;;;;;;;;;;7.28;100.00;99635.50;5051738;28;20040;-75
2023/03/09 02:52:01;;;;;;;14.07;10.88;;;;;;;7.17;100.00;99571.69;5050342;28;20353;-76
2023/03/09 02:54:26;;;;;;;14.80;10.27;;;;;;;7.45;100.00;99630.09;5051588;28;20082;-77
2023/03/09 02:56:52;;;;;;;14.82;10.43;;;;;;;7.44;100.00;99630.97;5051101;28;20029;-76
2023/03/09 02:59:17;;;;;;;14.38;10.43;;;;;;;7.22;100.00;99594.34;5050612;28;20040;-75
2023/03/09 03:01:43;;;;;;;17.05;10.68;;;;;;;7.21;100.00;99640.72;5048279;28;20086;-75
2023/03/09 03:04:08;;;;;;;15.73;10.85;;;;;;;7.34;100.00;99635.38;5038022;28;20076;-75
2023/03/09 03:06:33;;;;;;;17.75;12.85;;;;;;;7.01;100.00;99576.22;5030846;28;20033;-77
2023/03/09 03:08:59;;;;;;;19.05;12.48;;;;;;;7.38;100.00;99641.22;5043873;28;20046;-76
2023/03/09 03:11:24;;;;;;;17.00;10.80;;;;;;;7.32;100.00;99641.34;5049719;28;20036;-75
2023/03/09 03:13:50;;;;;;;18.55;10.98;;;;;;;7.08;100.00;99596.31;5051578;28;20037;-75
2023/03/09 03:16:15;;;;;;;18.42;11.55;;;;;;;7.33;100.00;99643.81;5049464;28;20102;-75
2023/03/09 03:18:40;;;;;;;20.13;11.32;;;;;;;7.23;100.00;99644.06;5054505;28;20544;-75
2023/03/09 03:21:06;;;;;;;16.10;11.88;;;;;;;7.43;100.00;99641.94;5055178;28;20088;-77
2023/03/09 03:23:31;;;;;;;15.18;11.82;;;;;;;7.08;100.00;99581.16;5054462;28;20120;-75
2023/03/09 03:26:04;;;;;;;17.05;11.45;;;;;;;7.12;100.00;99608.88;5052719;28;20029;-75
2023/03/09 03:28:29;;;;;;;22.27;12.27;;;;;;;6.85;100.00;99620.34;5054130;28;20029;-76
2023/03/09 03:30:55;;;;;;;20.13;12.23;;;;;;;7.18;100.00;99654.25;5053257;28;20029;-76
2023/03/09 03:33:21;;;;;;;20.45;11.43;;;;;;;7.17;100.00;99651.75;5053178;28;20052;-77
2023/03/09 03:35:47;;;;;;;19.83;12.10;;;;;;;6.61;100.00;99610.72;5054104;28;20033;-77
2023/03/09 03:38:12;;;;;;;21.95;11.93;;;;;;;6.83;100.00;99651.56;5047458;28;20053;-76
2023/03/09 03:40:38;;;;;;;20.13;12.00;;;;;;;6.83;100.00;99623.78;5033552;28;20055;-75
2023/03/09 03:43:03;;;;;;;20.13;12.35;;;;;;;7.03;100.00;99637.69;5034549;28;20128;-76
2023/03/09 03:45:28;;;;;;;21.15;12.68;;;;;;;7.03;100.00;99648.66;5034143;28;20127;-77
2023/03/09 03:47:54;;;;;;;20.40;12.20;;;;;;;6.74;100.00;99591.94;5033896;28;20026;-75
2023/03/09 03:50:19;;;;;;;19.52;12.90;;;;;;;6.50;100.00;99592.38;5034105;28;20748;-75
2023/03/09 03:52:45;;;;;;;16.55;12.57;;;;;;;6.59;100.00;99642.72;5033776;28;20381;-75
2023/03/09 03:55:10;;;;;;;16.88;12.25;;;;;;;6.80;100.00;99637.28;5034283;28;20090;-75
2023/03/09 03:57:35;;;;;;;17.20;12.13;;;;;;;6.89;100.00;99642.16;5033980;28;20033;-76
2023/03/09 04:00:04;;;;;;;17.70;12.13;;;;;;;6.94;100.00;99631.97;5033624;28;20033;-76
2023/03/09 04:02:29;;;;;;;18.90;11.40;;;;;;;7.11;100.00;99631.66;5033456;28;20044;-75
2023/03/09 04:04:55;;;;;;;13.90;11.20;;;;;;;6.83;100.00;99633.88;5033503;28;20025;-75
2023/03/09 04:07:20;;;;;;;17.45;11.45;;;;;;;6.50;100.00;99573.88;5034169;28;20040;-75
2023/03/09 04:09:45;;;;;;;18.73;11.68;;;;;;;6.89;100.00;99619.41;5034195;28;20025;-76
2023/03/09 04:12:11;;;;;;;14.95;11.65;;;;;;;6.57;100.00;99619.19;5032585;28;20073;-75
2023/03/09 04:14:38;;;;;;;15.57;12.00;;;;;;;6.93;100.00;99627.81;5033590;28;20041;-75
2023/03/09 04:17:03;;;;;;;17.17;12.00;;;;;;;6.99;100.00;99623.44;5047428;28;20036;-74
2023/03/09 04:19:29;;;;;;;17.38;12.90;;;;;;;7.13;100.00;99622.34;5044673;28;20029;-75
2023/03/09 04:21:54;;;;;;;18.17;14.30;;;;;;;7.09;100.00;99640.97;5054085;28;20029;-74
2023/03/09 04:24:19;;;;;;;24.80;15.82;;;;;;;6.88;100.00;99567.25;5053640;28;20119;-74
2023/03/09 04:26:45;;;;;;;20.92;15.73;;;;;;;6.94;100.00;99594.06;5053522;28;20484;-75
2023/03/09 04:29:10;;;;;;;23.95;17.35;;;;;;;6.63;100.00;99581.22;5053008;28;20090;-76
2023/03/09 04:31:36;;;;;;;25.73;19.17;;;;;;;7.19;100.00;99629.81;5051818;28;20043;-76
2023/03/09 04:34:02;;;;;;;38.20;23.70;;;;;;;6.92;100.00;99578.97;5051386;28;20099;-75
2023/03/09 04:36:27;;;;;;;27.60;17.92;;;;;;;6.64;100.00;99590.44;5032501;28;20518;-72
2023/03/09 04:38:53;;;;;;;26.83;15.82;;;;;;;6.93;100.00;99617.69;5031408;28;20140;-75
2023/03/09 04:41:18;;;;;;;37.42;21.23;;;;;;;7.02;100.00;99536.63;5040694;28;20466;-73
2023/03/09 04:43:44;;;;;;;26.63;18.95;;;;;;;6.93;100.00;99627.81;5052607;28;20476;-75
2023/03/09 04:46:09;;;;;;;28.05;17.95;;;;;;;6.67;100.00;99585.34;5056356;28;20046;-73
2023/03/09 04:48:34;;;;;;;27.20;18.27;;;;;;;6.81;100.00;99630.56;5072128;28;20032;-75
2023/03/09 04:51:00;;;;;;;23.20;16.45;;;;;;;6.47;100.00;99572.25;5071951;28;20032;-74
2023/03/09 04:53:25;;;;;;;21.33;13.63;;;;;;;6.61;100.00;99575.38;5072487;28;20033;-74
2023/03/09 04:55:51;;;;;;;19.58;13.90;;;;;;;6.24;100.00;99526.38;5071094;28;20510;-75
2023/03/09 04:58:16;;;;;;;21.10;15.68;;;;;;;6.76;100.00;99645.78;5060959;28;20037;-74
2023/03/09 05:00:41;;;;;;;22.13;14.63;;;;;;;6.92;100.00;99654.75;5040251;28;20116;-74
2023/03/09 05:03:07;;;;;;;21.83;13.98;;;;;;;6.89;100.00;99652.25;5041264;28;20487;-73
2023/03/09 05:05:32;;;;;;;20.77;13.60;;;;;;;7.18;100.00;99641.63;5039670;28;20036;-75
2023/03/09 05:07:58;;;;;;;19.02;13.45;;;;;;;6.96;100.00;99645.41;5040257;28;20029;-74
2023/03/09 05:10:23;;;;;;;25.38;18.17;;;;;;;6.63;100.00;99583.75;5042334;28;20048;-74
2023/03/09 05:12:48;;;;;;;26.58;18.60;;;;;;;7.03;100.00;99649.50;5042431;28;20037;-77
2023/03/09 05:15:14;;;;;;;44.78;27.30;;;;;;;7.21;100.00;99649.13;5038601;28;20777;-78
2023/03/09 05:17:39;;;;;;;30.85;21.48;;;;;;;7.22;100.00;99634.78;5041117;28;20040;-79
2023/03/09 05:20:09;;;;;;;29.90;20.88;;;;;;;6.83;100.00;99596.00;5049136;28;20621;-80
2023/03/09 05:22:35;;;;;;;26.08;20.25;;;;;;;7.23;100.00;99637.28;5046226;28;20468;-77
2023/03/09 05:25:04;;;;;;;32.67;22.75;;;;;;;7.21;100.00;99641.53;5048770;28;20028;-78
2023/03/09 05:27:31;;;;;;;37.67;25.20;;;;;;;7.17;100.00;99645.00;5042558;28;20059;-74
2023/03/09 05:29:56;;;;;;;35.83;24.73;;;;;;;7.48;100.00;99645.22;5042697;28;20098;-76
2023/03/09 05:32:22;;;;;;;34.03;20.48;;;;;;;7.14;100.00;99603.78;5041655;28;20041;-76
2023/03/09 05:34:47;;;;;;;32.80;19.92;;;;;;;7.15;100.00;99598.69;5040589;28;20033;-75
2023/03/09 05:37:13;;;;;;;31.83;21.83;;;;;;;7.34;100.00;99648.03;5040954;28;20040;-79
2023/03/09 05:39:38;;;;;;;34.25;21.88;;;;;;;7.58;100.00;99645.00;5039743;28;20033;-77
2023/03/09 05:42:05;;;;;;;30.83;22.75;;;;;;;7.59;100.00;99646.66;5031717;28;20037;-77
2023/03/09 05:44:30;;;;;;;27.98;19.23;;;;;;;7.23;100.00;99598.56;5032329;28;20536;-77
2023/03/09 05:47:01;;;;;;;30.40;20.13;;;;;;;7.84;100.00;99642.72;5032658;28;20133;-77
2023/03/09 05:49:30;;;;;;;24.63;17.73;;;;;;;7.59;100.00;99585.09;5031177;28;20060;-78
2023/03/09 05:51:57;;;;;;;25.13;19.20;;;;;;;7.32;100.00;99591.59;5032656;28;20037;-78
2023/03/09 05:54:23;;;;;;;24.90;17.75;;;;;;;7.64;100.00;99594.28;5031465;28;20091;-79
2023/03/09 05:56:53;;;;;;;22.65;16.10;;;;;;;8.24;100.00;99660.34;5030468;28;20022;-79
2023/03/09 05:59:18;;;;;;;23.77;15.15;;;;;;;8.28;100.00;99641.72;5032103;28;20026;-78
2023/03/09 06:01:44;;;;;;;21.98;15.10;;;;;;;7.72;100.00;99586.50;5030909;28;20078;-77
2023/03/09 06:04:09;;;;;;;25.67;15.52;;;;;;;7.80;100.00;99655.47;5031598;28;20038;-79
2023/03/09 06:06:35;;;;;;;23.65;14.98;;;;;;;8.21;100.00;99637.63;5030785;28;20030;-78
2023/03/09 06:09:01;;;;;;;27.60;17.60;;;;;;;8.24;100.00;99604.63;5030102;28;20021;-78
2023/03/09 06:11:26;;;;;;;30.25;17.15;;;;;;;8.31;100.00;99669.50;5030455;28;20033;-78
2023/03/09 06:13:55;;;;;;;24.02;15.98;;;;;;;9.04;100.00;99649.88;5031027;28;20507;-78
2023/03/09 06:16:21;;;;;;;22.75;15.48;;;;;;;8.75;100.00;99595.72;5031756;28;20120;-77
2023/03/09 06:18:47;;;;;;;23.60;15.43;;;;;;;8.64;100.00;99610.41;5046463;28;20123;-77
2023/03/09 06:21:13;;;;;;;21.50;14.85;;;;;;;8.11;100.00;99615.09;5050306;28;20045;-79
2023/03/09 06:23:39;;;;;;;22.63;17.33;;;;;;;8.17;100.00;99628.44;5051662;28;20041;-79
2023/03/09 06:26:07;;;;;;;30.70;18.25;;;;;;;9.29;100.00;99682.13;5051690;28;20056;-79
2023/03/09 06:28:33;;;;;;;24.50;16.70;;;;;;;8.92;100.00;99586.84;5051518;28;20095;-79
2023/03/09 06:30:59;;;;;;;28.00;19.95;;;;;;;9.24;100.00;99698.34;5051617;28;20446;-78
2023/03/09 06:33:25;;;;;;;25.98;22.30;;;;;;;9.78;100.00;99689.19;5051686;28;20485;-78
2023/03/09 06:35:50;;;;;;;32.80;29.30;;;;;;;10.36;100.00;99690.78;5052061;28;20116;-78
2023/03/09 06:38:15;;;;;;;30.38;23.98;;;;;;;10.26;100.00;99699.59;5052053;28;20466;-78
2023/03/09 06:40:41;;;;;;;25.80;21.52;;;;;;;10.12;100.00;99649.22;5051329;28;20082;-78
2023/03/09 06:43:06;;;;;;;24.05;16.05;;;;;;;10.32;100.00;99653.66;5051770;28;20033;-79
2023/03/09 06:45:32;;;;;;;18.88;14.38;;;;;;;10.70;100.00;99642.22;5050473;28;20086;-77
2023/03/09 06:47:58;;;;;;;21.30;14.63;;;;;;;11.39;100.00;99695.72;5051276;28;20498;-78
2023/03/09 06:50:25;;;;;;;20.88;14.90;;;;;;;10.46;100.00;99676.91;5051782;28;20033;-78
2023/03/09 06:52:51;;;;;;;20.05;14.88;;;;;;;10.70;100.00;99711.72;5052984;28;20022;-78
2023/03/09 06:55:17;;;;;;;22.35;17.33;;;;;;;10.32;100.00;99672.28;5055471;28;20040;-77
2023/03/09 06:57:42;;;;;;;22.90;14.93;;;;;;;11.08;100.00;99660.38;5055422;28;20024;-79
2023/03/09 07:00:11;;;;;;;35.40;15.38;;;;;;;11.57;100.00;99664.53;5053647;28;20036;-77
2023/03/09 07:02:37;;;;;;;21.65;15.75;;;;;;;11.34;100.00;99679.81;5055064;28;20036;-78
2023/03/09 07:05:03;;;;;;;22.73;15.15;;;;;;;11.25;100.00;99714.03;5053724;28;20028;-77
2023/03/09 07:07:28;;;;;;;23.52;16.30;;;;;;;11.39;100.00;99675.38;5055181;28;20040;-77
2023/03/09 07:09:54;;;;;;;26.30;16.10;;;;;;;11.43;100.00;99732.91;5054527;28;20075;-78
2023/03/09 07:12:19;;;;;;;25.95;15.75;;;;;;;11.42;100.00;99727.88;5054700;28;20083;-77
2023/03/09 07:14:45;;;;;;;25.60;14.05;;;;;;;10.50;100.00;99728.50;5054867;28;20028;-78
2023/03/09 07:17:14;;;;;;;24.20;13.50;;;;;;;11.74;100.00;99722.50;5053281;28;20071;-77
2023/03/09 07:19:40;;;;;;;22.15;13.55;;;;;;;12.17;100.00;99664.78;5054579;28;20075;-78
2023/03/09 07:22:06;;;;;;;20.20;13.70;;;;;;;12.78;100.00;99710.72;5054724;28;20037;-79
2023/03/09 07:24:36;;;;;;;22.80;14.98;;;;;;;12.73;100.00;99712.66;5054145;28;20116;-77
2023/03/09 07:27:01;;;;;;;20.02;14.63;;;;;;;12.91;100.00;99666.78;5054649;28;20033;-79
2023/03/09 07:29:27;;;;;;;21.63;14.10;;;;;;;12.61;100.00;99651.94;5054533;28;20043;-76
2023/03/09 07:31:52;;;;;;;25.08;14.98;;;;;;;13.55;100.00;99710.78;5054202;28;20051;-78
2023/03/09 07:34:18;;;;;;;23.48;14.80;;;;;;;13.29;100.00;99634.50;5054340;28;20029;-78
2023/03/09 07:36:43;;;;;;;21.85;14.43;;;;;;;13.30;100.00;99689.81;5054056;28;20079;-78
2023/03/09 07:39:09;;;;;;;29.08;18.88;;;;;;;13.87;100.00;99702.50;5053460;28;20029;-81
2023/03/09 07:41:34;;;;;;;22.60;13.90;;;;;;;13.85;100.00;99704.31;5053252;28;20055;-78
2023/03/09 07:43:59;;;;;;;19.73;12.82;;;;;;;13.94;100.00;99652.75;5052961;28;20063;-78
2023/03/09 07:46:25;;;;;;;23.10;13.48;;;;;;;13.56;100.00;99650.34;5053486;28;20406;-79
2023/03/09 07:48:51;;;;;;;23.38;12.68;;;;;;;14.24;100.00;99698.25;5054434;28;20061;-78
2023/03/09 07:51:17;;;;;;;16.70;11.15;;;;;;;13.57;100.00;99697.94;5053274;28;20041;-77
2023/03/09 07:53:42;;;;;;;18.23;11.48;;;;;;;14.09;100.00;99648.66;5054039;28;20025;-77
2023/03/09 07:56:08;;;;;;;21.33;11.13;;;;;;;14.61;100.00;99698.16;5052835;28;20025;-80
2023/03/09 07:58:36;;;;;;;12.93;8.65;;;;;;;12.41;100.00;99654.47;5053944;28;20112;-78
2023/03/09 08:01:05;;;;;;;13.93;9.82;;;;;;;14.18;100.00;99699.34;5054040;28;20036;-77
2023/03/09 08:03:30;;;;;;;17.67;10.18;;;;;;;14.61;100.00;99672.59;5051578;28;20059;-77
2023/03/09 08:05:55;;;;;;;17.05;12.13;;;;;;;14.70;100.00;99685.75;5053704;28;20033;-78
2023/03/09 08:08:22;;;;;;;13.60;10.70;;;;;;;14.54;100.00;99658.44;5053876;28;20033;-77
2023/03/09 08:10:50;;;;;;;13.00;10.63;;;;;;;14.03;100.00;99694.13;5052579;28;20029;-78
2023/03/09 08:13:16;;;;;;;16.27;10.77;;;;;;;14.89;100.00;99675.44;5053505;28;20033;-77
2023/03/09 08:15:41;;;;;;;16.25;11.27;;;;;;;14.64;100.00;99677.53;5053299;28;20033;-77
2023/03/09 08:18:07;;;;;;;16.05;10.90;;;;;;;15.16;100.00;99673.19;5052631;28;20037;-76
2023/03/09 08:20:40;;;;;;;11.45;9.25;;;;;;;14.02;100.00;99679.72;5052617;28;20060;-78
2023/03/09 08:23:07;;;;;;;13.40;9.38;;;;;;;13.42;100.00;99680.75;5053583;28;20070;-77
2023/03/09 08:25:32;;;;;;;11.60;8.85;;;;;;;14.62;100.00;99664.00;5052704;28;20033;-77
2023/03/09 08:27:58;;;;;;;10.43;8.05;;;;;;;14.43;100.00;99679.44;5053461;28;20021;-77
2023/03/09 08:30:24;;;;;;;12.90;8.45;;;;;;;13.83;100.00;99679.72;5053213;28;20122;-78
2023/03/09 08:32:52;;;;;;;15.60;8.05;;;;;;;14.41;100.00;99682.97;5053432;28;20033;-78
2023/03/09 08:35:20;;;;;;;12.73;9.63;;;;;;;13.83;100.00;99669.50;5053533;28;20116;-78
2023/03/09 08:37:45;;;;;;;14.13;10.45;;;;;;;14.39;100.00;99667.69;5052488;28;20033;-78
2023/03/09 08:40:12;;;;;;;12.57;9.20;;;;;;;14.72;100.00;99662.63;5053241;28;20036;-78
2023/03/09 08:42:37;;;;;;;13.65;9.27;;;;;;;14.49;100.00;99620.31;5052984;28;20039;-77
2023/03/09 08:45:04;;;;;;;13.13;9.85;;;;;;;14.83;100.00;99614.31;5053350;28;20025;-77
2023/03/09 08:47:30;;;;;;;14.48;10.10;;;;;;;14.78;100.00;99659.75;5051867;28;20047;-77
2023/03/09 08:49:55;;;;;;;17.55;14.02;;;;;;;14.09;100.00;99615.44;5051879;28;20037;-77
2023/03/09 08:52:21;;;;;;;13.15;11.50;;;;;;;14.78;100.00;99616.25;5052399;28;20040;-77
2023/03/09 08:54:49;;;;;;;13.85;10.88;;;;;;;14.72;100.00;99621.69;5051624;28;20442;-77
2023/03/09 08:57:14;;;;;;;21.33;10.52;;;;;;;14.93;100.00;99679.50;5052667;28;20028;-77
2023/03/09 08:59:40;;;;;;;11.70;9.85;;;;;;;15.27;100.00;99670.91;5052455;28;20040;-76
2023/03/09 09:02:05;;;;;;;15.18;10.32;;;;;;;15.18;100.00;99672.19;5052292;28;20423;-77
2023/03/09 09:04:31;;;;;;;14.60;10.90;;;;;;;14.98;100.00;99634.00;5051322;28;20032;-77
2023/03/09 09:06:56;;;;;;;14.65;10.57;;;;;;;13.93;100.00;99645.19;5051242;28;20528;-77
2023/03/09 09:09:22;;;;;;;13.98;11.23;;;;;;;14.52;100.00;99620.13;5051555;28;20029;-77
2023/03/09 09:11:48;;;;;;;11.93;8.57;;;;;;;15.35;100.00;99666.22;5052237;28;20041;-75
2023/03/09 09:14:15;;;;;;;13.35;8.80;;;;;;;14.86;100.00;99665.34;5051771;28;20036;-78
2023/03/09 09:16:40;;;;;;;12.50;9.23;;;;;;;15.25;100.00;99657.34;5051445;28;20067;-76
2023/03/09 09:19:07;;;;;;;12.82;9.50;;;;;;;15.15;100.00;99646.75;5050825;28;20423;-78
2023/03/09 09:21:32;;;;;;;14.95;10.52;;;;;;;14.83;100.00;99668.06;5052184;28;20060;-78
2023/03/09 09:23:58;;;;;;;15.00;9.00;;;;;;;14.52;100.00;99667.91;5052328;28;20037;-77
2023/03/09 09:26:24;;;;;;;10.52;8.52;;;;;;;14.37;100.00;99661.00;5052062;28;20041;-79
2023/03/09 09:28:50;;;;;;;11.13;8.98;;;;;;;14.25;100.00;99657.25;5051500;28;20090;-78
2023/03/09 09:31:19;;;;;;;11.70;8.68;;;;;;;14.97;100.00;99622.13;5051794;28;20082;-78
2023/03/09 09:33:46;;;;;;;11.95;8.80;;;;;;;15.07;100.00;99661.69;5052955;28;20099;-77
2023/03/09 09:36:14;;;;;;;12.20;9.18;;;;;;;14.96;100.00;99607.66;5050687;28;20112;-78
2023/03/09 09:38:41;;;;;;;12.02;9.05;;;;;;;15.47;100.00;99606.66;5052383;28;20035;-78
2023/03/09 09:41:11;;;;;;;12.18;8.70;;;;;;;15.18;100.00;99650.88;5052152;28;20036;-78
2023/03/09 09:43:38;;;;;;;10.52;8.30;;;;;;;15.71;100.00;99650.66;5052128;28;20448;-78
2023/03/09 09:46:05;;;;;;;12.20;8.35;;;;;;;15.36;100.00;99640.50;5050752;28;20039;-78
2023/03/09 09:48:31;;;;;;;11.35;7.50;;;;;;;15.83;100.00;99593.56;5051107;28;20033;-78
2023/03/09 09:51:27;;;;;;;10.77;8.13;;;;;;;15.50;100.00;99632.97;5051839;28;20064;-78
2023/03/09 09:54:20;;;;;;;7.80;6.88;;;;;;;15.07;100.00;99637.81;5051962;28;20037;-77
2023/03/09 09:56:50;;;;;;;9.45;7.05;;;;;;;15.69;100.00;99567.91;5051994;28;20051;-77
2023/03/09 09:59:24;;;;;;;12.10;7.18;;;;;;;15.43;100.00;99569.31;5051292;28;20120;-78
2023/03/09 10:01:58;;;;;;;7.68;6.07;;;;;;;15.16;100.00;99616.84;5052499;28;20032;-78
2023/03/09 10:04:31;;;;;;;9.23;6.07;;;;;;;15.79;100.00;99569.00;5052161;28;20480;-77
2023/03/09 10:07:00;;;;;;;6.85;6.00;;;;;;;15.77;100.00;99555.47;5050586;28;20032;-76
2023/03/09 10:09:29;;;;;;;7.93;5.22;;;;;;;16.00;100.00;99604.56;5051420;28;20041;-78
2023/03/09 10:12:02;;;;;;;6.57;4.88;;;;;;;15.60;100.00;99557.25;5051651;28;20032;-77
2023/03/09 10:14:54;;;;;;;9.60;5.75;;;;;;;15.90;100.00;99605.16;5050582;28;20479;-74
2023/03/09 10:17:50;;;;;;;8.77;6.88;;;;;;;16.33;100.00;99604.38;5051509;28;20079;-75
2023/03/09 10:20:32;;;;;;;6.95;4.57;;;;;;;15.67;100.00;99552.56;5047360;28;20052;-74
2023/03/09 10:22:58;;;;;;;10.75;5.88;;;;;;;16.42;100.00;99603.81;5050386;28;20029;-77
2023/03/09 10:25:26;;;;;;;7.38;4.63;;;;;;;16.35;100.00;99587.97;5051756;28;20479;-77
2023/03/09 10:27:56;;;;;;;9.52;5.05;;;;;;;16.40;100.00;99603.13;5052731;28;20037;-76
2023/03/09 10:30:46;;;;;;;6.90;4.35;;;;;;;15.92;100.00;99595.63;5055863;28;20090;-76
2023/03/09 10:33:17;;;;;;;5.82;4.38;;;;;;;16.56;100.00;99588.47;5053860;28;20423;-76
2023/03/09 10:36:24;;;;;;;8.20;3.90;;;;;;;16.50;100.00;99578.56;5055567;28;20028;-75
2023/03/09 10:38:50;;;;;;;4.70;4.05;;;;;;;16.42;100.00;99547.38;5017324;28;20079;-75
2023/03/09 10:41:18;;;;;;;5.85;4.10;;;;;;;16.03;100.00;99557.38;5055524;28;20029;-78
2023/03/09 10:43:45;;;;;;;5.80;3.88;;;;;;;16.93;100.00;99557.16;5049754;28;20071;-75
2023/03/09 10:46:23;;;;;;;5.43;4.30;;;;;;;16.44;100.00;99556.63;5048449;28;20025;-77
2023/03/09 10:48:51;;;;;;;8.27;5.18;;;;;;;16.81;100.00;99513.41;5047401;28;20582;-81
2023/03/09 10:51:32;;;;;;;5.60;4.95;;;;;;;16.93;100.00;99516.06;5055283;28;20484;-76
2023/03/09 10:54:33;;;;;;;5.45;3.80;;;;;;;16.62;100.00;99502.63;5053092;28;20056;-79
2023/03/09 10:56:58;;;;;;;5.85;3.58;;;;;;;16.87;100.00;99533.59;5042931;28;20103;-80
2023/03/09 10:59:26;;;;;;;7.90;4.00;;;;;;;16.08;100.00;99481.84;5053375;28;20079;-81
2023/03/09 11:01:57;;;;;;;5.28;3.72;;;;;;;16.39;100.00;99543.28;5054869;28;20112;-80
2023/03/09 11:04:23;;;;;;;5.82;4.60;;;;;;;16.76;100.00;99523.94;5055136;28;20115;-80
2023/03/09 11:06:57;;;;;;;4.82;3.72;;;;;;;17.10;100.00;99515.00;5053627;28;20605;-77
2023/03/09 11:09:48;;;;;;;3.83;2.97;;;;;;;17.10;100.00;99510.69;5053991;28;20040;-81
2023/03/09 11:12:36;;;;;;;5.68;3.30;;;;;;;17.20;100.00;99518.66;5046379;28;20037;-78
2023/03/09 11:15:23;;;;;;;5.25;3.17;;;;;;;16.84;100.00;99511.47;5053902;28;20119;-80
2023/03/09 11:17:49;;;;;;;6.20;3.67;;;;;;;17.06;100.00;99498.13;5054938;28;20024;-76
2023/03/09 11:20:18;;;;;;;5.80;3.45;;;;;;;17.43;100.00;99504.38;5054636;28;20052;-79